Time,TemperatureF,DewpointF,PressureIn,WindDirection,WindDirectionDegrees,WindSpeedMPH,WindSpeedGustMPH,Humidity,HourlyPrecipIn,Conditions,Clouds,dailyrainin,SoftwareType,DateUTC
2016-07-24 00:04:00,80.7,76.5,30.03,SSW,201,3.0,3.0,87,0.00,,---,0.00,VWS V15.00,2016-07-24 04:04:00,
2016-07-24 00:09:00,80.6,76.0,30.03,SW,218,0.0,2.0,86,0.00,,---,0.00,VWS V15.00,2016-07-24 04:09:00,
2016-07-24 00:14:00,80.5,75.9,30.03,SW,217,0.0,0.0,86,0.00,,---,0.00,VWS V15.00,2016-07-24 04:14:00,
2016-07-24 00:19:00,80.5,75.9,30.04,SW,217,1.0,1.0,86,0.00,,---,0.00,VWS V15.00,2016-07-24 04:19:00,
2016-07-24 00:24:00,80.2,75.6,30.04,South,188,0.0,3.0,86,0.08,,---,0.08,VWS V15.00,2016-07-24 04:24:00,
2016-07-24 00:29:00,79.4,75.2,30.04,South,184,0.0,1.0,87,0.20,,---,0.20,VWS V15.00,2016-07-24 04:29:00,
2016-07-24 00:34:00,78.5,74.7,30.03,South,178,0.0,2.0,88,0.25,,---,0.25,VWS V15.00,2016-07-24 04:34:00,
2016-07-24 00:39:00,77.8,74.3,30.04,South,171,0.0,1.0,89,0.26,,---,0.26,VWS V15.00,2016-07-24 04:39:00,
2016-07-24 00:44:00,77.5,74.3,30.04,SW,221,0.0,2.0,90,0.26,,---,0.26,VWS V15.00,2016-07-24 04:44:00,
2016-07-24 00:49:00,77.1,73.9,30.04,East,94,0.0,1.0,90,0.26,,---,0.26,VWS V15.00,2016-07-24 04:49:00,
2016-07-24 00:55:00,76.8,73.7,30.04,South,184,1.0,1.0,90,0.26,,---,0.26,VWS V15.00,2016-07-24 04:55:00,
2016-07-24 01:00:00,76.8,74.0,30.04,East,88,0.0,3.0,91,0.26,,---,0.26,VWS V15.00,2016-07-24 05:00:00,
2016-07-24 01:05:00,76.5,73.7,30.04,West,268,0.0,2.0,91,0.26,,---,0.26,VWS V15.00,2016-07-24 05:05:00,
2016-07-24 01:10:00,76.6,73.8,30.05,NW,324,2.0,6.0,91,0.30,,---,0.30,VWS V15.00,2016-07-24 05:10:00,
2016-07-24 01:15:00,76.5,73.3,30.05,NE,53,4.0,9.0,90,0.35,,---,0.36,VWS V15.00,2016-07-24 05:15:00,
2016-07-24 01:20:00,76.3,73.2,30.05,NNE,13,4.0,6.0,90,0.41,,---,0.41,VWS V15.00,2016-07-24 05:20:00,
2016-07-24 01:25:00,76.2,73.4,30.05,NE,37,6.0,7.0,91,0.42,,---,0.46,VWS V15.00,2016-07-24 05:25:00,
2016-07-24 01:30:00,76.2,73.4,30.05,North,9,0.0,5.0,91,0.36,,---,0.51,VWS V15.00,2016-07-24 05:30:00,
2016-07-24 01:35:00,76.3,73.8,30.05,North,360,0.0,1.0,92,0.30,,---,0.54,VWS V15.00,2016-07-24 05:35:00,
2016-07-24 01:40:00,76.4,73.9,30.05,NE,38,0.0,2.0,92,0.30,,---,0.56,VWS V15.00,2016-07-24 05:40:00,
2016-07-24 01:46:00,76.5,74.3,30.05,NE,55,0.0,2.0,93,0.31,,---,0.57,VWS V15.00,2016-07-24 05:46:00,
2016-07-24 01:51:00,76.9,74.7,30.05,NE,55,0.0,1.0,93,0.32,,---,0.58,VWS V15.00,2016-07-24 05:51:00,
2016-07-24 01:56:00,76.6,74.4,30.05,ENE,61,2.0,3.0,93,0.33,,---,0.59,VWS V15.00,2016-07-24 05:56:00,
2016-07-24 02:01:00,76.3,74.1,30.04,East,92,0.0,3.0,93,0.33,,---,0.59,VWS V15.00,2016-07-24 06:01:00,
2016-07-24 02:06:00,76.0,73.8,30.05,East,92,0.0,1.0,93,0.33,,---,0.59,VWS V15.00,2016-07-24 06:06:00,
2016-07-24 02:11:00,75.9,73.7,30.05,ESE,103,0.0,3.0,93,0.33,,---,0.59,VWS V15.00,2016-07-24 06:11:00,
2016-07-24 02:16:00,75.7,73.5,30.04,ESE,104,0.0,2.0,93,0.28,,---,0.60,VWS V15.00,2016-07-24 06:16:00,
2016-07-24 02:21:00,75.5,73.3,30.04,ESE,104,0.0,1.0,93,0.22,,---,0.60,VWS V15.00,2016-07-24 06:21:00,
2016-07-24 02:26:00,75.5,73.7,30.05,ESE,104,0.0,0.0,94,0.17,,---,0.60,VWS V15.00,2016-07-24 06:26:00,
2016-07-24 02:31:00,75.4,73.6,30.05,ESE,104,0.0,1.0,94,0.12,,---,0.60,VWS V15.00,2016-07-24 06:31:00,
2016-07-24 02:36:00,75.1,73.3,30.05,South,182,1.0,2.0,94,0.08,,---,0.60,VWS V15.00,2016-07-24 06:36:00,
2016-07-24 02:41:00,74.9,73.1,30.05,South,173,0.0,2.0,94,0.05,,---,0.60,VWS V15.00,2016-07-24 06:41:00,
2016-07-24 02:47:00,74.7,72.9,30.05,South,172,0.0,0.0,94,0.04,,---,0.60,VWS V15.00,2016-07-24 06:47:00,
2016-07-24 02:52:00,74.6,72.8,30.05,South,172,0.0,0.0,94,0.02,,---,0.60,VWS V15.00,2016-07-24 06:52:00,
2016-07-24 02:57:00,74.6,72.8,30.04,South,172,0.0,1.0,94,0.02,,---,0.60,VWS V15.00,2016-07-24 06:57:00,
2016-07-24 03:02:00,74.7,72.9,30.04,South,171,0.0,1.0,94,0.01,,---,0.60,VWS V15.00,2016-07-24 07:02:00,
2016-07-24 03:07:00,74.7,72.9,30.04,SSE,157,0.0,0.0,94,0.01,,---,0.60,VWS V15.00,2016-07-24 07:07:00,
2016-07-24 03:12:00,74.8,73.3,30.04,South,184,0.0,4.0,95,0.01,,---,0.60,VWS V15.00,2016-07-24 07:12:00,
2016-07-24 03:17:00,74.7,73.2,30.03,SSW,199,0.0,4.0,95,0.01,,---,0.60,VWS V15.00,2016-07-24 07:17:00,
2016-07-24 03:22:00,74.7,73.2,30.03,South,188,2.0,5.0,95,0.00,,---,0.60,VWS V15.00,2016-07-24 07:22:00,
2016-07-24 03:27:00,74.5,73.0,30.03,SSW,207,4.0,6.0,95,0.00,,---,0.60,VWS V15.00,2016-07-24 07:27:00,
2016-07-24 03:32:00,74.4,72.9,30.02,South,191,5.0,8.0,95,0.00,,---,0.60,VWS V15.00,2016-07-24 07:32:00,
2016-07-24 03:37:00,74.4,72.9,30.02,South,169,1.0,6.0,95,0.00,,---,0.60,VWS V15.00,2016-07-24 07:37:00,
2016-07-24 03:42:00,74.3,72.8,30.02,SSW,200,1.0,2.0,95,0.00,,---,0.60,VWS V15.00,2016-07-24 07:42:00,
2016-07-24 03:47:00,74.4,72.9,30.02,SSW,200,0.0,1.0,95,0.00,,---,0.60,VWS V15.00,2016-07-24 07:47:00,
2016-07-24 03:52:00,74.5,73.0,30.01,SW,214,0.0,1.0,95,0.00,,---,0.60,VWS V15.00,2016-07-24 07:52:00,
2016-07-24 03:57:00,74.7,73.2,30.01,SW,214,0.0,0.0,95,0.00,,---,0.60,VWS V15.00,2016-07-24 07:57:00,
2016-07-24 04:02:00,74.8,73.3,30.01,SW,214,0.0,0.0,95,0.00,,---,0.60,VWS V15.00,2016-07-24 08:02:00,
2016-07-24 04:13:00,74.8,73.3,30.00,SW,214,0.0,1.0,95,0.00,,---,0.60,VWS V15.00,2016-07-24 08:13:00,
2016-07-24 04:18:00,74.7,73.2,30.00,SW,214,0.0,0.0,95,0.00,,---,0.60,VWS V15.00,2016-07-24 08:18:00,
2016-07-24 04:23:00,74.6,73.1,30.00,SW,214,0.0,0.0,95,0.00,,---,0.60,VWS V15.00,2016-07-24 08:23:00,
2016-07-24 04:28:00,74.6,73.1,30.00,SW,214,0.0,0.0,95,0.00,,---,0.60,VWS V15.00,2016-07-24 08:28:00,
2016-07-24 04:33:00,74.6,73.1,30.00,SW,214,0.0,0.0,95,0.00,,---,0.60,VWS V15.00,2016-07-24 08:33:00,
2016-07-24 04:38:00,74.6,73.1,30.00,SW,214,0.0,1.0,95,0.00,,---,0.60,VWS V15.00,2016-07-24 08:38:00,
2016-07-24 04:43:00,74.6,73.1,30.00,SW,214,0.0,0.0,95,0.00,,---,0.60,VWS V15.00,2016-07-24 08:43:00,
2016-07-24 04:48:00,74.6,73.1,30.00,SW,214,0.0,0.0,95,0.00,,---,0.60,VWS V15.00,2016-07-24 08:48:00,
2016-07-24 04:53:00,74.8,73.3,30.00,SW,215,0.0,0.0,95,0.00,,---,0.60,VWS V15.00,2016-07-24 08:53:00,
2016-07-24 04:58:00,75.1,73.9,30.00,SW,226,0.0,0.0,96,0.00,,---,0.60,VWS V15.00,2016-07-24 08:58:00,
2016-07-24 05:08:00,75.3,73.8,30.00,SW,226,0.0,0.0,95,0.00,,---,0.60,VWS V15.00,2016-07-24 09:08:00,